This is the latest recevied weather packets stored in our database for station/object PY2KO-13. If no packets are shown the sender has not sent any weather packets the latest 10 day(s).
| Time | Temp. | Humidity | Pressure | Rain* | Wind** | Luminosity | Snow |
|---|---|---|---|---|---|---|---|
| 1777684505 | 24.44° C | 80% | 1020 hPa | - | - | - | - |
| 1777682705 | 24.44° C | 80% | 1020.2 hPa | - | - | - | - |
| 1777679108 | 25° C | 79% | 1020.1 hPa | - | - | - | - |
| 1777677305 | 25° C | 78% | 1019.8 hPa | - | - | - | - |
| 1777675504 | 24.44° C | 79% | 1019.5 hPa | - | - | - | - |
| 1777673706 | 25° C | 78% | 1019.2 hPa | - | - | - | - |
| 1777671905 | 25° C | 76% | 1019 hPa | - | - | - | - |
| 1777670105 | 25.56° C | 76% | 1018.8 hPa | - | - | - | - |
| 1777668305 | 25.56° C | 74% | 1018.7 hPa | - | - | - | - |
| 1777666505 | 26.11° C | 70% | 1018.6 hPa | - | - | - | - |
| 1777664705 | 27.22° C | 60% | 1018.5 hPa | - | - | - | - |
| 1777662905 | 26.67° C | 61% | 1018.5 hPa | - | - | - | - |
| 1777661105 | 27.22° C | 60% | 1018.6 hPa | - | - | - | - |
| 1777659305 | 26.67° C | 61% | 1018.7 hPa | - | - | - | - |
| 1777657505 | 26.67° C | 61% | 1019 hPa | - | - | - | - |
| 1777655705 | 26.67° C | 62% | 1019.2 hPa | - | - | - | - |
| 1777653905 | 26.67° C | 62% | 1019.7 hPa | - | - | - | - |
| 1777652105 | 27.78° C | 57% | 1020.1 hPa | - | - | - | - |
| 1777650305 | 26.67° C | 61% | 1020.6 hPa | - | - | - | - |
| 1777648505 | 25.56° C | 64% | 1021.2 hPa | - | - | - | - |
| 1777646705 | 26.11° C | 64% | 1021.6 hPa | - | - | - | - |
| 1777644905 | 25° C | 68% | 1022.1 hPa | - | - | - | - |
| 1777643104 | 25° C | 67% | 1022.6 hPa | - | - | - | - |
| 1777641305 | 25° C | 68% | 1022.9 hPa | - | - | - | - |
| 1777639505 | 23.89° C | 73% | 1023 hPa | - | - | - | - |
* Rain since midnight (hover to see other rain measurements)
** Current wind speed in m/s (hover to see current wind gust speed)